South Molton, United Kingdom
Current Conditions -  °F | °C
As of 5:20 PM on Tuesday 21 Oct 2014 (Local Time) from EGTE Reporting Station
Rain Showers Rain Showers  
Wind Chill: 50°   Ceiling: Unl
Heat Index: 50°   Visibility: 6mi
Dew Point: 41°   Wind: 18mph
Humidity: 71%   Direction: 300°WNW
Pressure: 30.06"   Gusts: 30mph
Location:  51.02°N, 3.83°W
Report Text: EGTE 211620Z 30016G26KT 9999 VCSH FEW012CB SCT035 10/05 Q1018
Loading
Personal Weather Stations






























Interactive Weather Map New forecast layout! Learn more

10-Day Weather Forecast

Advertisements
Track Severe Weather on mobile